Time;durP1;ratioP1;P1;durP2;ratioP2;P2;SDS_P1;SDS_P2;PMS_P1;PMS_P2;Temp;Humidity;BMP_temperature;BMP_pressure;BME280_temperature;BME280_humidity;BME280_pressure;Samples;Min_cycle;Max_cycle;Signal;HPM_P1;HPM_P2
2024/01/18 00:01:10;;;;;;;6.30;4.63;;;7.20;99.90;;;;;;5095548;28;20196;-74
2024/01/18 00:03:38;;;;;;;4.67;4.00;;;7.20;99.90;;;;;;5095412;28;20199;-74
2024/01/18 00:06:05;;;;;;;5.40;4.23;;;7.30;99.90;;;;;;5095488;28;20750;-76
2024/01/18 00:08:32;;;;;;;5.40;4.70;;;7.20;99.90;;;;;;5095505;28;20625;-77
2024/01/18 00:11:00;;;;;;;5.37;4.53;;;7.20;99.90;;;;;;5095458;28;20197;-78
2024/01/18 00:13:27;;;;;;;7.03;4.57;;;7.20;99.90;;;;;;5095421;28;20261;-79
2024/01/18 00:15:55;;;;;;;6.47;4.73;;;7.20;99.90;;;;;;5095061;28;20549;-78
2024/01/18 00:18:22;;;;;;;5.93;4.80;;;7.20;99.90;;;;;;5095434;28;20204;-78
2024/01/18 00:20:49;;;;;;;5.67;5.17;;;7.10;99.90;;;;;;5095429;28;20193;-79
2024/01/18 00:23:16;;;;;;;6.60;4.97;;;7.10;99.90;;;;;;5095186;28;20206;-78
2024/01/18 00:25:43;;;;;;;5.27;4.77;;;7.00;99.90;;;;;;5095184;28;20192;-78
2024/01/18 00:28:10;;;;;;;5.97;4.87;;;7.00;99.90;;;;;;5094868;28;20277;-78
2024/01/18 00:30:38;;;;;;;6.40;4.63;;;7.00;99.90;;;;;;5094923;28;20229;-79
2024/01/18 00:33:06;;;;;;;5.63;4.93;;;7.00;99.90;;;;;;5095168;28;20253;-78
2024/01/18 00:35:33;;;;;;;5.40;4.90;;;7.00;99.90;;;;;;5095270;28;20196;-78
2024/01/18 00:37:59;;;;;;;5.67;5.07;;;7.00;99.90;;;;;;5094491;28;20201;-77
2024/01/18 00:40:26;;;;;;;6.43;4.40;;;7.10;99.90;;;;;;5095053;28;20205;-77
2024/01/18 00:42:53;;;;;;;5.43;4.40;;;7.10;99.90;;;;;;5094884;28;20200;-78
2024/01/18 00:45:19;;;;;;;5.67;4.23;;;7.20;99.90;;;;;;5095148;28;20196;-78
2024/01/18 00:47:46;;;;;;;4.90;4.17;;;7.20;99.90;;;;;;5094992;28;20192;-77
2024/01/18 00:50:14;;;;;;;5.53;3.80;;;7.30;99.90;;;;;;5094645;28;20220;-78
2024/01/18 00:52:41;;;;;;;4.03;3.63;;;7.30;99.90;;;;;;5094667;28;20287;-79
2024/01/18 00:55:09;;;;;;;4.50;3.83;;;7.30;99.90;;;;;;5094555;28;20223;-78
2024/01/18 00:57:36;;;;;;;12.77;4.80;;;7.40;99.90;;;;;;5094345;28;20231;-79
2024/01/18 01:00:05;;;;;;;4.67;3.47;;;7.50;99.90;;;;;;5094570;28;20193;-78
2024/01/18 01:02:31;;;;;;;4.07;3.53;;;7.50;99.90;;;;;;5094632;28;20197;-77
2024/01/18 01:04:58;;;;;;;3.77;3.23;;;7.50;99.90;;;;;;5094215;28;20257;-77
2024/01/18 01:07:26;;;;;;;3.67;3.30;;;7.50;99.90;;;;;;5093388;28;20253;-77
2024/01/18 01:09:53;;;;;;;3.83;3.40;;;7.60;99.90;;;;;;5094050;28;20296;-77
2024/01/18 01:12:19;;;;;;;3.60;3.20;;;7.60;99.90;;;;;;5094298;28;20230;-77
2024/01/18 01:14:46;;;;;;;3.93;3.20;;;7.60;99.90;;;;;;5094335;28;20279;-77
2024/01/18 01:17:13;;;;;;;3.73;3.37;;;7.60;99.90;;;;;;5094297;28;20200;-76
2024/01/18 01:19:39;;;;;;;3.50;3.20;;;7.60;99.90;;;;;;5094039;28;20232;-78
2024/01/18 01:22:06;;;;;;;4.97;3.40;;;7.60;99.90;;;;;;5093898;28;20230;-76
2024/01/18 01:24:38;;;;;;;3.93;3.53;;;7.50;99.90;;;;;;5093925;28;20291;-76
2024/01/18 01:27:05;;;;;;;5.67;3.20;;;7.60;99.90;;;;;;5093837;28;20235;-75
2024/01/18 01:29:32;;;;;;;4.73;4.27;;;7.50;99.90;;;;;;5093811;28;20799;-74
2024/01/18 01:31:58;;;;;;;4.37;3.53;;;7.40;99.90;;;;;;5093810;28;20204;-74
2024/01/18 01:34:25;;;;;;;4.37;3.73;;;7.50;99.90;;;;;;5093794;28;20197;-75
2024/01/18 01:36:52;;;;;;;5.00;4.13;;;7.40;99.90;;;;;;5093764;28;20648;-74
2024/01/18 01:39:19;;;;;;;4.33;3.93;;;7.40;99.90;;;;;;5093637;28;20196;-75
2024/01/18 01:41:47;;;;;;;4.30;3.90;;;7.40;99.90;;;;;;5093951;28;20269;-75
2024/01/18 01:44:14;;;;;;;4.77;4.17;;;7.40;99.90;;;;;;5093608;28;20597;-75
2024/01/18 01:46:41;;;;;;;4.60;3.87;;;7.30;99.90;;;;;;5093701;28;20261;-76
2024/01/18 01:49:08;;;;;;;4.57;4.17;;;7.30;99.90;;;;;;5092852;28;20745;-75
2024/01/18 01:51:39;;;;;;;4.47;4.07;;;7.30;99.90;;;;;;5093432;28;20208;-76
2024/01/18 01:54:06;;;;;;;5.73;3.90;;;7.30;99.90;;;;;;5093780;28;20193;-76
2024/01/18 01:56:35;;;;;;;4.37;3.87;;;7.20;99.90;;;;;;5093651;28;20200;-76
2024/01/18 01:59:04;;;;;;;4.43;3.97;;;7.20;99.90;;;;;;5093534;28;20207;-75
2024/01/18 02:01:31;;;;;;;4.97;4.30;;;7.30;99.90;;;;;;5093332;28;20192;-76
2024/01/18 02:03:58;;;;;;;4.50;4.10;;;7.20;99.90;;;;;;5093295;28;20269;-75
2024/01/18 02:06:25;;;;;;;4.77;4.20;;;7.20;99.90;;;;;;5093211;28;20246;-75
2024/01/18 02:08:52;;;;;;;4.63;4.13;;;7.10;99.90;;;;;;5093366;28;20250;-75
2024/01/18 02:11:19;;;;;;;5.50;4.80;;;7.10;99.90;;;;;;5093286;28;20232;-75
2024/01/18 02:13:46;;;;;;;4.20;3.80;;;7.10;99.90;;;;;;5093056;28;20655;-74
2024/01/18 02:16:14;;;;;;;5.07;4.57;;;7.10;99.90;;;;;;5098925;28;20205;-75
2024/01/18 02:18:40;;;;;;;4.20;3.80;;;7.10;99.90;;;;;;5093000;28;20246;-75
2024/01/18 02:21:08;;;;;;;7.23;4.47;;;7.10;99.90;;;;;;5092895;28;20197;-75
2024/01/18 02:23:37;;;;;;;5.53;4.67;;;7.10;99.90;;;;;;5093155;28;20234;-75
2024/01/18 02:26:05;;;;;;;6.10;4.53;;;7.10;99.90;;;;;;5092989;28;20254;-75
2024/01/18 02:28:32;;;;;;;4.80;3.87;;;7.00;99.90;;;;;;5092601;28;20232;-75
2024/01/18 02:30:59;;;;;;;4.80;4.40;;;6.90;99.90;;;;;;5092590;28;20253;-75
2024/01/18 02:33:25;;;;;;;8.50;5.00;;;6.80;99.90;;;;;;5092675;28;20249;-75
2024/01/18 02:35:52;;;;;;;5.17;4.67;;;6.80;99.90;;;;;;5092920;28;20626;-75
2024/01/18 02:38:20;;;;;;;12.67;5.33;;;6.70;99.90;;;;;;5092886;28;20204;-75
2024/01/18 02:40:46;;;;;;;6.20;5.50;;;6.80;99.90;;;;;;5092851;28;20207;-74
2024/01/18 02:43:14;;;;;;;9.80;7.47;;;6.90;99.90;;;;;;5092698;28;20192;-75
2024/01/18 02:45:41;;;;;;;10.67;8.33;;;6.60;99.90;;;;;;5092656;28;20805;-75
2024/01/18 02:48:07;;;;;;;10.33;8.13;;;6.40;99.90;;;;;;5092681;28;20232;-74
2024/01/18 02:50:33;;;;;;;9.53;8.37;;;5.60;99.90;;;;;;5092581;28;20301;-75
2024/01/18 02:53:00;;;;;;;11.27;8.17;;;5.40;99.90;;;;;;5092736;28;20200;-75
2024/01/18 02:55:27;;;;;;;9.90;8.23;;;5.30;99.90;;;;;;5092702;28;20201;-75
2024/01/18 02:57:56;;;;;;;8.40;7.43;;;5.00;99.90;;;;;;5092663;28;20226;-75
2024/01/18 03:00:24;;;;;;;9.57;8.50;;;4.90;99.90;;;;;;5092806;28;20203;-75
2024/01/18 03:02:50;;;;;;;11.03;7.80;;;4.80;99.90;;;;;;5096966;28;20200;-75
2024/01/18 03:05:17;;;;;;;10.37;8.60;;;4.50;99.90;;;;;;5096925;28;20230;-76
2024/01/18 03:07:44;;;;;;;8.60;7.70;;;4.30;99.90;;;;;;5096584;28;20726;-76
2024/01/18 03:10:11;;;;;;;8.73;7.80;;;4.20;99.90;;;;;;5096514;28;20242;-76
2024/01/18 03:12:37;;;;;;;8.97;7.93;;;4.10;99.90;;;;;;5096644;28;20544;-76
2024/01/18 03:15:05;;;;;;;9.03;8.10;;;4.00;99.90;;;;;;5096584;28;20198;-77
2024/01/18 03:17:33;;;;;;;9.03;7.83;;;3.90;99.90;;;;;;5096626;28;20681;-79
2024/01/18 03:20:00;;;;;;;8.70;7.80;;;3.80;99.90;;;;;;5096783;28;20261;-77
2024/01/18 03:22:26;;;;;;;9.30;8.40;;;3.70;99.90;;;;;;5096920;28;20214;-79
2024/01/18 03:24:53;;;;;;;9.10;8.20;;;3.50;99.90;;;;;;5096802;28;20206;-79
2024/01/18 03:27:21;;;;;;;10.50;8.47;;;3.50;99.90;;;;;;5096566;28;20289;-79
2024/01/18 03:29:47;;;;;;;10.00;8.93;;;3.40;99.90;;;;;;5096360;28;20224;-79
2024/01/18 03:32:14;;;;;;;9.27;8.27;;;3.40;99.90;;;;;;5096305;28;20203;-80
2024/01/18 03:34:42;;;;;;;9.10;8.17;;;3.40;99.90;;;;;;5096073;28;20536;-79
2024/01/18 03:37:09;;;;;;;8.50;7.63;;;3.40;99.90;;;;;;5096129;28;20202;-79
2024/01/18 03:39:36;;;;;;;8.00;6.97;;;3.40;99.90;;;;;;5096083;28;20192;-78
2024/01/18 03:42:03;;;;;;;6.77;6.10;;;3.40;99.90;;;;;;5096000;28;20192;-79
2024/01/18 03:44:30;;;;;;;7.00;6.30;;;3.40;99.90;;;;;;5095830;28;20708;-79
2024/01/18 03:46:58;;;;;;;9.33;8.30;;;3.40;99.90;;;;;;5095689;28;20544;-78
2024/01/18 03:49:24;;;;;;;11.20;9.37;;;3.30;99.90;;;;;;5095785;28;20291;-79
2024/01/18 03:51:52;;;;;;;9.83;8.83;;;3.10;99.90;;;;;;5095806;28;20199;-79
2024/01/18 03:54:20;;;;;;;10.27;9.17;;;3.00;99.90;;;;;;5095740;28;20247;-80
2024/01/18 03:56:47;;;;;;;10.43;8.80;;;3.00;99.90;;;;;;5095681;28;20237;-80
2024/01/18 03:59:14;;;;;;;10.90;9.10;;;2.90;99.90;;;;;;5095771;28;20213;-80
2024/01/18 04:01:41;;;;;;;11.10;8.47;;;2.80;99.90;;;;;;5095514;28;20197;-80
2024/01/18 04:04:08;;;;;;;9.57;8.47;;;2.80;99.90;;;;;;5095663;28;20194;-80
2024/01/18 04:06:35;;;;;;;10.13;8.47;;;2.80;99.90;;;;;;5095534;28;20205;-79
2024/01/18 04:09:05;;;;;;;12.23;8.33;;;2.80;99.90;;;;;;5095490;28;20201;-80
2024/01/18 04:11:32;;;;;;;8.90;7.97;;;2.90;99.90;;;;;;5095618;28;20321;-79
2024/01/18 04:13:59;;;;;;;10.57;8.53;;;2.90;99.90;;;;;;5094550;28;20201;-79
2024/01/18 04:16:26;;;;;;;11.03;8.80;;;2.80;99.90;;;;;;5095276;28;20205;-79
2024/01/18 04:18:52;;;;;;;10.40;8.30;;;2.90;99.90;;;;;;5095200;28;20196;-79
2024/01/18 04:21:19;;;;;;;9.93;8.47;;;2.90;99.90;;;;;;5095258;28;20218;-79
2024/01/18 04:23:46;;;;;;;9.17;7.67;;;2.90;99.90;;;;;;5095063;28;20197;-79
2024/01/18 04:26:14;;;;;;;9.87;7.40;;;2.80;99.90;;;;;;5095051;28;20192;-79
2024/01/18 04:28:40;;;;;;;8.77;7.23;;;2.80;99.90;;;;;;5094951;28;20691;-79
2024/01/18 04:31:07;;;;;;;8.93;7.10;;;2.80;99.90;;;;;;5094910;28;20226;-79
2024/01/18 04:33:34;;;;;;;10.27;7.67;;;2.90;99.90;;;;;;5095023;28;20267;-79
2024/01/18 04:36:01;;;;;;;8.43;7.30;;;2.80;99.90;;;;;;5095009;28;20194;-79
2024/01/18 04:38:28;;;;;;;15.30;8.43;;;2.80;99.90;;;;;;5094959;28;20202;-79
2024/01/18 04:40:54;;;;;;;9.30;7.50;;;2.70;99.90;;;;;;5094982;28;20193;-79
2024/01/18 04:43:23;;;;;;;10.33;7.77;;;2.80;99.90;;;;;;5094943;28;20194;-79
2024/01/18 04:45:50;;;;;;;9.03;7.30;;;2.80;99.90;;;;;;5095005;28;20280;-79
2024/01/18 04:48:17;;;;;;;8.17;6.90;;;2.80;99.90;;;;;;5094776;28;20203;-79
2024/01/18 04:50:44;;;;;;;10.60;7.87;;;2.80;99.90;;;;;;5094589;28;20350;-79
2024/01/18 04:53:11;;;;;;;11.17;7.97;;;2.80;99.90;;;;;;5094619;28;20203;-79
2024/01/18 04:55:37;;;;;;;10.27;7.50;;;2.80;99.90;;;;;;5094580;28;20228;-80
2024/01/18 04:58:04;;;;;;;9.23;7.33;;;2.90;99.90;;;;;;5094392;28;20199;-79
2024/01/18 05:00:32;;;;;;;9.87;7.87;;;2.90;99.90;;;;;;5094465;28;20206;-80
2024/01/18 05:02:59;;;;;;;11.00;7.77;;;2.90;99.90;;;;;;5094530;28;20202;-81
2024/01/18 05:05:26;;;;;;;10.97;8.30;;;2.80;99.90;;;;;;5094318;28;20194;-80
2024/01/18 05:07:52;;;;;;;12.63;8.37;;;2.90;99.90;;;;;;5094616;28;20223;-80
2024/01/18 05:10:19;;;;;;;11.77;8.43;;;2.80;99.90;;;;;;5094401;28;20233;-80
2024/01/18 05:12:46;;;;;;;11.83;8.13;;;2.80;99.90;;;;;;5094230;28;20673;-80
2024/01/18 05:15:13;;;;;;;11.93;8.30;;;2.80;99.90;;;;;;5094127;28;20653;-80
2024/01/18 05:17:43;;;;;;;14.77;9.43;;;2.80;99.90;;;;;;5094202;28;20278;-80
2024/01/18 05:20:11;;;;;;;11.37;8.60;;;2.80;99.90;;;;;;5094022;28;20679;-79
2024/01/18 05:22:38;;;;;;;13.60;8.67;;;2.70;99.90;;;;;;5094290;28;20211;-79
2024/01/18 05:25:05;;;;;;;12.30;8.70;;;2.70;99.90;;;;;;5093979;28;20206;-79
2024/01/18 05:27:32;;;;;;;10.07;8.27;;;2.80;99.90;;;;;;5093865;28;20321;-79
2024/01/18 05:29:59;;;;;;;12.07;9.03;;;2.70;99.90;;;;;;5093906;28;20209;-80
2024/01/18 05:32:26;;;;;;;10.90;8.23;;;2.70;99.90;;;;;;5093835;28;20258;-79
2024/01/18 05:34:54;;;;;;;10.10;8.13;;;2.70;99.90;;;;;;5093778;28;20198;-79
2024/01/18 05:37:22;;;;;;;10.40;7.67;;;2.70;99.90;;;;;;5093943;28;20205;-79
2024/01/18 05:39:50;;;;;;;10.53;8.17;;;2.70;99.90;;;;;;5093945;28;20205;-79
2024/01/18 05:42:18;;;;;;;11.77;8.03;;;2.70;99.90;;;;;;5093873;28;20233;-79
2024/01/18 05:44:45;;;;;;;11.70;7.70;;;2.70;99.90;;;;;;5093678;28;20223;-80
2024/01/18 05:47:12;;;;;;;9.60;7.27;;;2.80;99.90;;;;;;5093650;28;20205;-81
2024/01/18 05:49:39;;;;;;;9.90;7.77;;;2.80;99.90;;;;;;5093992;28;20206;-81
2024/01/18 05:52:07;;;;;;;10.50;7.63;;;2.70;99.90;;;;;;5093545;28;20557;-81
2024/01/18 05:54:34;;;;;;;10.80;7.73;;;2.80;99.90;;;;;;5093527;28;20203;-81
2024/01/18 05:57:01;;;;;;;12.93;7.97;;;2.80;99.90;;;;;;5093663;28;20287;-81
2024/01/18 05:59:28;;;;;;;8.30;6.80;;;2.80;99.90;;;;;;5093468;28;20646;-81
2024/01/18 06:01:55;;;;;;;10.77;7.33;;;2.90;99.90;;;;;;5093485;28;20193;-79
2024/01/18 06:04:21;;;;;;;12.20;7.60;;;2.90;99.90;;;;;;5093468;28;20199;-80
2024/01/18 06:06:49;;;;;;;8.27;6.60;;;2.80;99.90;;;;;;5093570;28;20195;-79
2024/01/18 06:09:18;;;;;;;11.13;7.80;;;2.80;99.90;;;;;;5092600;28;20215;-78
2024/01/18 06:11:45;;;;;;;10.00;7.17;;;2.80;99.90;;;;;;5092405;28;20220;-78
2024/01/18 06:14:11;;;;;;;10.47;7.03;;;2.80;99.90;;;;;;5093156;28;20584;-79
2024/01/18 06:16:38;;;;;;;8.80;7.17;;;2.80;99.90;;;;;;5092928;28;20206;-78
2024/01/18 06:19:05;;;;;;;10.97;7.33;;;2.80;99.90;;;;;;5093363;28;20307;-78
2024/01/18 06:21:31;;;;;;;19.17;11.10;;;2.90;99.90;;;;;;5093252;28;20203;-77
2024/01/18 06:23:58;;;;;;;16.10;10.17;;;2.90;99.90;;;;;;5093104;28;20652;-77
2024/01/18 06:26:26;;;;;;;15.20;10.17;;;2.90;99.90;;;;;;5093220;28;20252;-77
2024/01/18 06:28:53;;;;;;;15.47;9.13;;;3.00;99.90;;;;;;5092682;28;20310;-77
2024/01/18 06:31:26;;;;;;;12.23;8.67;;;3.00;99.90;;;;;;5093140;28;20276;-77
2024/01/18 06:33:52;;;;;;;12.93;8.97;;;3.00;99.90;;;;;;5093053;28;20203;-76
2024/01/18 06:36:19;;;;;;;11.40;8.37;;;3.00;99.90;;;;;;5092533;28;20254;-76
2024/01/18 06:38:46;;;;;;;11.40;8.27;;;3.00;99.90;;;;;;5092942;28;20194;-76
2024/01/18 06:41:13;;;;;;;15.23;9.83;;;3.00;99.90;;;;;;5092685;28;20224;-75
2024/01/18 06:43:40;;;;;;;15.97;11.47;;;3.00;99.90;;;;;;5093191;28;20201;-75
2024/01/18 06:46:15;;;;;;;14.80;10.00;;;3.00;99.90;;;;;;5092976;28;20253;-76
2024/01/18 06:48:42;;;;;;;14.97;9.30;;;3.00;99.90;;;;;;5092969;28;20196;-76
2024/01/18 06:51:09;;;;;;;13.23;9.93;;;3.10;99.90;;;;;;5092564;28;20871;-77
2024/01/18 06:53:36;;;;;;;17.33;11.17;;;3.10;99.90;;;;;;5092627;28;20246;-77
2024/01/18 06:56:03;;;;;;;13.10;10.20;;;3.00;99.90;;;;;;5092602;28;20605;-78
2024/01/18 06:58:29;;;;;;;15.57;11.33;;;3.00;99.90;;;;;;5092949;28;20201;-77
2024/01/18 07:00:57;;;;;;;16.33;11.77;;;3.00;99.90;;;;;;5092814;28;20242;-77
2024/01/18 07:03:25;;;;;;;19.27;11.87;;;3.00;99.90;;;;;;5092753;28;20204;-76
2024/01/18 07:05:51;;;;;;;23.67;15.77;;;3.00;99.90;;;;;;5092925;28;20264;-78
2024/01/18 07:08:18;;;;;;;22.13;15.40;;;3.00;99.90;;;;;;5098041;28;20245;-77
2024/01/18 07:10:48;;;;;;;24.37;15.00;;;2.80;99.90;;;;;;5092948;28;20209;-77
2024/01/18 07:13:14;;;;;;;21.30;13.13;;;2.80;99.90;;;;;;5092738;28;20246;-77
2024/01/18 07:15:41;;;;;;;23.77;16.93;;;2.80;99.90;;;;;;5092670;28;20202;-77
2024/01/18 07:18:09;;;;;;;22.10;13.37;;;2.70;99.90;;;;;;5092655;28;20198;-77
2024/01/18 07:20:36;;;;;;;21.53;14.70;;;2.70;99.90;;;;;;5092572;28;20891;-77
2024/01/18 07:23:02;;;;;;;20.53;13.50;;;2.60;99.90;;;;;;5092408;28;20204;-78
2024/01/18 07:25:29;;;;;;;21.53;12.73;;;2.50;99.90;;;;;;5092592;28;20200;-77
2024/01/18 07:27:56;;;;;;;17.97;11.40;;;2.50;99.90;;;;;;5092430;28;20315;-77
2024/01/18 07:30:23;;;;;;;16.03;11.30;;;2.50;99.90;;;;;;5092586;28;20197;-77
2024/01/18 07:32:50;;;;;;;16.00;10.53;;;2.40;99.90;;;;;;5092403;28;20244;-76
2024/01/18 07:35:18;;;;;;;14.50;9.80;;;2.40;99.90;;;;;;5092508;28;20262;-77
2024/01/18 07:37:44;;;;;;;16.27;10.23;;;2.50;99.90;;;;;;5092462;28;20198;-77
2024/01/18 07:40:12;;;;;;;14.20;9.10;;;2.40;99.90;;;;;;5092587;28;20197;-77
2024/01/18 07:42:38;;;;;;;10.90;8.13;;;2.40;99.90;;;;;;5092604;28;20208;-77
2024/01/18 07:45:07;;;;;;;17.40;8.77;;;2.40;99.90;;;;;;5092453;28;20248;-77
2024/01/18 07:47:34;;;;;;;11.60;7.40;;;2.50;99.90;;;;;;5092873;28;20630;-77
2024/01/18 07:50:01;;;;;;;11.40;7.43;;;2.50;99.90;;;;;;5095991;28;20194;-77
2024/01/18 07:52:28;;;;;;;10.87;6.50;;;2.50;99.90;;;;;;5096044;28;20223;-77
2024/01/18 07:54:55;;;;;;;9.97;6.63;;;2.50;99.90;;;;;;5095759;28;20250;-76
2024/01/18 07:57:22;;;;;;;9.87;6.63;;;2.50;99.90;;;;;;5095995;28;20235;-76
2024/01/18 07:59:49;;;;;;;9.83;6.03;;;2.60;99.90;;;;;;5096218;28;20248;-77
2024/01/18 08:02:15;;;;;;;10.80;7.50;;;2.50;99.90;;;;;;5095955;28;20202;-76
2024/01/18 08:04:42;;;;;;;8.50;5.90;;;2.50;99.90;;;;;;5096070;28;20245;-76
2024/01/18 08:07:08;;;;;;;8.80;5.83;;;2.50;99.90;;;;;;5096278;28;20193;-77
2024/01/18 08:09:37;;;;;;;8.93;5.93;;;2.50;99.90;;;;;;5096094;28;20202;-76
2024/01/18 08:12:05;;;;;;;8.07;5.97;;;2.50;99.90;;;;;;5095684;28;20226;-77
2024/01/18 08:14:32;;;;;;;6.67;5.40;;;2.50;99.90;;;;;;5095738;28;20599;-77
2024/01/18 08:16:58;;;;;;;8.17;5.37;;;2.50;99.90;;;;;;5095587;28;20652;-76
2024/01/18 08:19:25;;;;;;;8.33;5.67;;;2.40;99.90;;;;;;5095326;28;20194;-75
2024/01/18 08:21:53;;;;;;;6.70;5.37;;;2.40;99.90;;;;;;5095653;28;20715;-76
2024/01/18 08:24:19;;;;;;;8.93;6.63;;;2.50;99.90;;;;;;5095363;28;20611;-75
2024/01/18 08:26:47;;;;;;;7.43;5.33;;;2.60;99.90;;;;;;5095143;28;20626;-77
2024/01/18 08:29:14;;;;;;;7.27;5.13;;;2.60;99.90;;;;;;5095414;28;20205;-77
2024/01/18 08:31:41;;;;;;;6.43;4.87;;;2.40;99.90;;;;;;5094983;28;20221;-76
2024/01/18 08:34:08;;;;;;;6.67;4.27;;;2.40;99.90;;;;;;5095042;28;20197;-75
2024/01/18 08:36:36;;;;;;;5.70;4.20;;;2.30;99.90;;;;;;5095365;28;20305;-75
2024/01/18 08:39:03;;;;;;;5.57;4.50;;;2.40;99.90;;;;;;5095381;28;20202;-76
2024/01/18 08:41:30;;;;;;;5.13;4.33;;;2.40;99.90;;;;;;5095057;28;20208;-76
2024/01/18 08:43:58;;;;;;;5.07;4.20;;;2.40;99.90;;;;;;5095003;28;20203;-76
2024/01/18 08:46:26;;;;;;;5.13;4.30;;;2.40;99.90;;;;;;5094886;28;20197;-75
2024/01/18 08:48:52;;;;;;;5.80;4.60;;;2.40;99.90;;;;;;5095243;28;20198;-76
2024/01/18 08:51:19;;;;;;;5.33;4.57;;;2.20;99.90;;;;;;5094982;28;20227;-75
2024/01/18 08:53:46;;;;;;;6.33;4.63;;;2.20;99.90;;;;;;5095012;28;20201;-76
2024/01/18 08:56:13;;;;;;;7.27;5.17;;;2.20;99.90;;;;;;5094940;28;20223;-76
2024/01/18 08:58:40;;;;;;;6.47;4.53;;;2.30;99.90;;;;;;5094405;28;20553;-76
2024/01/18 09:01:08;;;;;;;6.43;4.60;;;2.30;99.90;;;;;;5094886;28;20205;-76
2024/01/18 09:03:35;;;;;;;5.20;4.43;;;2.30;99.90;;;;;;5095549;28;20830;-77
2024/01/18 09:06:01;;;;;;;5.73;4.77;;;2.40;99.90;;;;;;5094787;28;20591;-77
2024/01/18 09:08:28;;;;;;;7.73;5.97;;;2.50;99.90;;;;;;5094638;28;20229;-77
2024/01/18 09:10:54;;;;;;;6.67;5.13;;;2.50;99.90;;;;;;5094412;28;20200;-77
2024/01/18 09:13:21;;;;;;;6.40;5.10;;;2.50;99.90;;;;;;5094493;28;20223;-78
2024/01/18 09:15:50;;;;;;;5.60;5.10;;;2.40;99.90;;;;;;5094782;28;20237;-77
2024/01/18 09:18:18;;;;;;;6.07;5.40;;;2.30;99.90;;;;;;5094767;28;20293;-78
2024/01/18 09:20:45;;;;;;;6.60;4.83;;;2.30;99.90;;;;;;5094465;28;20244;-78
2024/01/18 09:23:12;;;;;;;5.37;4.83;;;2.30;99.90;;;;;;5094250;28;20208;-78
2024/01/18 09:25:39;;;;;;;5.73;4.47;;;2.40;99.90;;;;;;5094146;28;20200;-78
2024/01/18 09:28:07;;;;;;;6.00;5.30;;;2.20;99.90;;;;;;5093922;28;20336;-78
2024/01/18 09:30:34;;;;;;;7.10;5.43;;;2.20;99.90;;;;;;5094197;28;20207;-77
2024/01/18 09:33:01;;;;;;;5.83;4.70;;;2.30;99.90;;;;;;5094078;28;20234;-78
2024/01/18 09:35:29;;;;;;;5.93;4.80;;;2.20;99.90;;;;;;5094175;28;20219;-78
2024/01/18 09:37:57;;;;;;;7.20;5.80;;;2.30;99.90;;;;;;5093947;28;20205;-78
2024/01/18 09:40:23;;;;;;;5.80;4.90;;;2.30;99.90;;;;;;5093897;28;20293;-78
2024/01/18 09:42:51;;;;;;;5.60;4.43;;;2.40;99.90;;;;;;5094071;28;20202;-78
2024/01/18 09:45:26;;;;;;;4.57;3.70;;;2.40;99.90;;;;;;5093911;28;20541;-77
2024/01/18 09:47:53;;;;;;;5.97;4.20;;;2.30;99.90;;;;;;5093899;28;20214;-78
2024/01/18 09:50:22;;;;;;;9.67;5.53;;;2.10;99.90;;;;;;5093720;28;20205;-77
2024/01/18 09:52:50;;;;;;;6.87;4.90;;;2.00;99.90;;;;;;5093512;28;20810;-78
2024/01/18 09:55:17;;;;;;;4.47;3.67;;;2.10;99.90;;;;;;5093627;28;20197;-78
2024/01/18 09:57:48;;;;;;;4.93;3.73;;;2.10;99.90;;;;;;5093727;28;20196;-77
2024/01/18 10:00:16;;;;;;;5.27;4.43;;;2.00;99.90;;;;;;5093559;28;20656;-77
2024/01/18 10:02:43;;;;;;;4.47;3.43;;;2.00;99.90;;;;;;5093558;28;20287;-78
2024/01/18 10:05:13;;;;;;;4.67;3.50;;;1.90;99.90;;;;;;5093445;28;20675;-78
2024/01/18 10:07:40;;;;;;;6.07;4.43;;;1.80;99.90;;;;;;5093304;28;20201;-78
2024/01/18 10:10:12;;;;;;;6.63;4.43;;;1.80;99.90;;;;;;5093036;28;20261;-78
2024/01/18 10:12:41;;;;;;;5.30;4.30;;;1.80;99.90;;;;;;5093415;28;20583;-78
2024/01/18 10:15:08;;;;;;;5.33;3.97;;;1.90;99.90;;;;;;5093508;28;20204;-78
2024/01/18 10:17:37;;;;;;;5.00;3.83;;;1.80;99.90;;;;;;5093402;28;20273;-78
2024/01/18 10:20:13;;;;;;;3.40;3.10;;;1.80;99.90;;;;;;5093338;28;20617;-78
2024/01/18 10:22:41;;;;;;;3.83;3.40;;;1.80;99.90;;;;;;5093318;28;20250;-77
2024/01/18 10:25:13;;;;;;;4.30;3.90;;;1.80;99.90;;;;;;5093181;28;20262;-77
2024/01/18 10:27:41;;;;;;;4.23;3.23;;;1.80;99.90;;;;;;5093058;28;20228;-77
2024/01/18 10:30:12;;;;;;;3.80;3.20;;;1.80;99.90;;;;;;5093189;28;20200;-77
2024/01/18 10:32:39;;;;;;;3.90;3.13;;;1.70;99.90;;;;;;5096101;28;20231;-77
2024/01/18 10:35:07;;;;;;;4.33;3.67;;;1.70;99.90;;;;;;5098983;28;20215;-78
2024/01/18 10:37:35;;;;;;;4.03;3.50;;;1.70;99.90;;;;;;5093223;28;20204;-77
2024/01/18 10:40:04;;;;;;;5.20;3.60;;;1.70;99.90;;;;;;5093084;28;20239;-77
2024/01/18 10:42:32;;;;;;;4.83;3.87;;;1.70;99.90;;;;;;5093031;28;20199;-78
2024/01/18 10:45:02;;;;;;;6.03;3.83;;;1.80;99.90;;;;;;5092899;28;20235;-79
2024/01/18 10:47:30;;;;;;;4.10;3.60;;;1.80;99.90;;;;;;5092874;28;20573;-78
2024/01/18 10:49:58;;;;;;;3.47;3.13;;;1.70;99.90;;;;;;5093173;28;20208;-78
2024/01/18 10:52:26;;;;;;;3.23;2.90;;;1.60;99.90;;;;;;5092908;28;20629;-77
2024/01/18 10:54:55;;;;;;;3.60;3.13;;;1.60;99.90;;;;;;5092944;28;20257;-77
2024/01/18 10:57:22;;;;;;;4.00;3.40;;;1.50;99.90;;;;;;5092944;28;20246;-77
2024/01/18 10:59:52;;;;;;;3.60;3.30;;;1.40;99.90;;;;;;5092737;28;20203;-76
2024/01/18 11:02:19;;;;;;;3.50;3.10;;;1.40;99.90;;;;;;5093019;28;20207;-76
2024/01/18 11:04:48;;;;;;;4.40;3.70;;;1.60;99.90;;;;;;5092885;28;20201;-76
2024/01/18 11:07:15;;;;;;;4.47;4.00;;;1.60;99.90;;;;;;5092974;28;20192;-77
2024/01/18 11:09:43;;;;;;;3.60;3.30;;;1.70;99.90;;;;;;5092893;28;20234;-78
2024/01/18 11:12:12;;;;;;;3.73;3.43;;;1.50;99.90;;;;;;5092629;28;20277;-77
2024/01/18 11:14:39;;;;;;;4.20;3.20;;;1.30;99.90;;;;;;5092843;28;20192;-78
2024/01/18 11:17:12;;;;;;;4.13;3.30;;;1.30;99.90;;;;;;5092849;28;20200;-77
2024/01/18 11:19:43;;;;;;;4.40;3.43;;;1.10;99.90;;;;;;5092695;28;20227;-78
2024/01/18 11:22:11;;;;;;;4.33;3.90;;;1.10;99.90;;;;;;5094076;28;20651;-77
2024/01/18 11:24:38;;;;;;;4.63;3.83;;;1.10;99.90;;;;;;5096342;28;20197;-78
2024/01/18 11:27:18;;;;;;;6.10;4.30;;;1.00;99.90;;;;;;5096353;28;20762;-77
2024/01/18 11:29:46;;;;;;;4.60;3.97;;;1.00;99.90;;;;;;5096679;28;20192;-77
2024/01/18 11:32:15;;;;;;;5.13;4.63;;;1.00;99.90;;;;;;5104281;28;20218;-76
2024/01/18 11:34:42;;;;;;;7.07;5.13;;;0.90;99.90;;;;;;5114408;28;20196;-77
2024/01/18 11:37:11;;;;;;;4.87;4.37;;;0.80;99.90;;;;;;5113581;28;20717;-78
2024/01/18 11:39:56;;;;;;;5.73;4.93;;;0.70;99.90;;;;;;5098482;28;20257;-77
2024/01/18 11:42:24;;;;;;;6.03;5.40;;;0.70;99.90;;;;;;5096673;28;20204;-77
2024/01/18 11:44:56;;;;;;;6.63;5.70;;;0.60;99.90;;;;;;5097592;28;20204;-76
2024/01/18 11:47:25;;;;;;;7.80;5.90;;;0.50;99.90;;;;;;5097626;28;20200;-78
2024/01/18 11:49:52;;;;;;;6.70;5.57;;;0.50;99.90;;;;;;5096965;28;20253;-78
2024/01/18 11:52:22;;;;;;;6.67;5.87;;;0.50;99.90;;;;;;5096678;28;20265;-78
2024/01/18 11:54:53;;;;;;;6.77;5.20;;;0.50;99.90;;;;;;5097279;28;20249;-78
2024/01/18 11:57:20;;;;;;;5.83;5.23;;;0.50;99.90;;;;;;5096118;28;20226;-78
2024/01/18 11:59:46;;;;;;;6.47;5.33;;;0.50;99.90;;;;;;5095874;28;20656;-79
2024/01/18 12:02:14;;;;;;;6.77;6.00;;;0.50;99.90;;;;;;5095655;28;20264;-79
2024/01/18 12:04:42;;;;;;;6.17;5.23;;;0.50;99.90;;;;;;5095848;28;20200;-79
2024/01/18 12:07:11;;;;;;;5.33;4.53;;;0.50;99.90;;;;;;5096001;28;20200;-78
2024/01/18 12:09:38;;;;;;;5.73;4.60;;;0.50;99.90;;;;;;5095806;28;20203;-78
2024/01/18 12:12:05;;;;;;;5.93;4.63;;;0.40;99.90;;;;;;5095655;28;20212;-78
2024/01/18 12:14:33;;;;;;;4.80;4.30;;;0.50;99.90;;;;;;5095360;28;20204;-78
2024/01/18 12:17:00;;;;;;;6.40;4.13;;;0.50;99.90;;;;;;5095474;28;20197;-80
2024/01/18 12:19:31;;;;;;;5.70;4.77;;;0.50;99.90;;;;;;5095584;28;20228;-79
2024/01/18 12:22:02;;;;;;;4.97;4.43;;;0.50;99.90;;;;;;5095450;28;20602;-78
2024/01/18 12:24:29;;;;;;;5.27;4.57;;;0.40;99.90;;;;;;5095691;28;20587;-80
2024/01/18 12:26:55;;;;;;;5.80;4.70;;;0.40;99.90;;;;;;5095690;28;20288;-80
2024/01/18 12:29:22;;;;;;;5.80;4.97;;;0.30;99.90;;;;;;5095525;28;20670;-80
2024/01/18 12:31:50;;;;;;;6.33;5.40;;;0.40;99.90;;;;;;5095411;28;20200;-81
2024/01/18 12:34:19;;;;;;;6.23;5.20;;;0.50;99.90;;;;;;5094524;28;20224;-79
2024/01/18 12:36:46;;;;;;;6.87;5.10;;;0.50;99.90;;;;;;5095285;28;20287;-79
2024/01/18 12:39:16;;;;;;;5.10;4.60;;;0.60;99.90;;;;;;5095235;28;20204;-78
2024/01/18 12:41:43;;;;;;;6.10;5.27;;;0.50;99.90;;;;;;5095125;28;20224;-79
2024/01/18 12:44:11;;;;;;;5.60;4.83;;;0.40;99.90;;;;;;5095152;28;20197;-80
2024/01/18 12:46:39;;;;;;;5.30;4.47;;;0.50;99.90;;;;;;5095075;28;20666;-81
2024/01/18 12:49:07;;;;;;;5.27;4.77;;;0.40;99.90;;;;;;5095062;28;20203;-80
2024/01/18 12:51:35;;;;;;;5.00;4.50;;;0.20;99.90;;;;;;5094973;28;20204;-80
2024/01/18 12:54:02;;;;;;;5.20;4.70;;;0.20;99.90;;;;;;5095120;28;20266;-81